KTIF

Details ICAO KTIF
Name Thomas County
Region United States
Timezone America/Chicago (UTC-5.0)
Plans Departing 0
Arriving 0
Stats Elevation 2,926 ft / 892 m (AMSL)
Location 41.962711° -100.570313°
Runways 1
Magnetic Variation 5.712° E
Sunrise 2018-05-25 11:14:50 UTC / 2018-05-25 06:14:50 Local
Sunset 2018-05-26 02:06:32 UTC / 2018-05-25 21:06:32 Local
Advertisement - Login to hide

Runways

ID Width Length Bearing (true) Bearing (mag) Surface Threshold Offset Overrun Length
11 59 ft / 18 m 4,407 ft / 1,343 m 118.50° 112.79° Asphalt 0 ft / 0 m 0 ft / 0 m
29 59 ft / 18 m 4,407 ft / 1,343 m 298.50° 292.79° Asphalt 0 ft / 0 m 0 ft / 0 m

Map

Weather


0- 5 10 15 20 25 30 35+ Temperature / ° C

Clouds and Precipitation
Forecast for 2018-05-26 06:00 UTC. Updated an hour ago

Ground ~20,000 ft ~40,000 ft Winds

METAR

KTIF 260635Z AUTO 00000KT 10SM CLR 18/15 A2989 RMK AO2 T01750148

TAF

Not found

Frequencies

Recorded 120.82 MHz AWOS 3
Unicom 122.90 MHz CTAF
Warning: Do not use this data for real-world aviation or navigation. No guarantee of current accuracy is given.